createdAt,value
2018-04-08T00:00:07.238Z,79.32
2018-04-08T00:02:34.948Z,79.61
2018-04-08T00:05:02.406Z,79.96
2018-04-08T00:07:29.854Z,80.94
2018-04-08T00:09:57.358Z,82.11
2018-04-08T00:12:24.812Z,81.78
2018-04-08T00:14:52.605Z,82.09
2018-04-08T00:17:20.070Z,81.28
2018-04-08T00:19:47.518Z,81.87
2018-04-08T00:22:14.989Z,81.54
2018-04-08T00:24:42.457Z,81.04
2018-04-08T00:27:10.107Z,80.78
2018-04-08T00:29:37.560Z,81.11
2018-04-08T00:32:05.009Z,82.58
2018-04-08T00:34:32.477Z,82.10
2018-04-08T00:36:59.946Z,81.50
2018-04-08T00:39:27.649Z,82.16
2018-04-08T00:41:55.090Z,82.68
2018-04-08T00:44:22.554Z,82.37
2018-04-08T00:46:50.036Z,82.94
2018-04-08T00:49:17.686Z,83.01
2018-04-08T00:51:45.249Z,82.61
2018-04-08T00:54:24.589Z,83.37
2018-04-08T00:56:52.231Z,83.67
2018-04-08T00:59:19.689Z,84.53
2018-04-08T01:01:47.168Z,83.31
2018-04-08T01:04:14.637Z,82.11
2018-04-08T01:06:42.077Z,82.82
2018-04-08T01:09:09.656Z,83.53
2018-04-08T01:11:37.105Z,84.06
2018-04-08T01:14:04.550Z,83.39
2018-04-08T01:16:32.042Z,83.87
2018-04-08T01:18:59.493Z,82.70
2018-04-08T01:21:27.143Z,82.74
2018-04-08T01:23:54.589Z,81.90
2018-04-08T01:26:22.058Z,82.71
2018-04-08T01:28:49.523Z,83.71
2018-04-08T01:31:16.972Z,83.52
2018-04-08T01:33:44.685Z,83.98
2018-04-08T01:36:12.146Z,84.37
2018-04-08T01:38:39.609Z,83.98
2018-04-08T01:41:07.101Z,83.48
2018-04-08T01:43:34.541Z,84.12
2018-04-08T01:46:02.027Z,83.88
2018-04-08T01:48:29.485Z,84.05
2018-04-08T01:50:56.933Z,84.44
2018-04-08T01:53:24.394Z,83.35
2018-04-08T01:55:51.836Z,83.24
2018-04-08T01:58:19.318Z,83.42
2018-04-08T02:00:46.774Z,83.48
2018-04-08T02:03:14.218Z,83.12
2018-04-08T02:05:41.759Z,83.19
2018-04-08T02:08:09.204Z,83.67
2018-04-08T02:10:37.095Z,83.10
2018-04-08T02:13:04.545Z,83.09
2018-04-08T02:15:32.010Z,83.51
2018-04-08T02:17:59.477Z,83.67
2018-04-08T02:20:26.921Z,83.76
2018-04-08T02:22:54.509Z,84.26
2018-04-08T02:25:21.950Z,83.92
2018-04-08T02:27:49.390Z,83.18
2018-04-08T02:30:16.956Z,84.16
2018-04-08T02:32:44.406Z,83.99
2018-04-08T02:35:12.034Z,84.38
2018-04-08T02:37:39.494Z,83.78
2018-04-08T02:40:06.947Z,83.36
2018-04-08T02:42:34.430Z,83.71
2018-04-08T02:45:01.875Z,84.10
2018-04-08T02:47:29.495Z,84.80
2018-04-08T02:49:56.950Z,84.18
2018-04-08T02:52:24.409Z,84.12
2018-04-08T02:54:51.892Z,84.35
2018-04-08T02:57:19.356Z,84.45
2018-04-08T02:59:46.834Z,84.68
2018-04-08T03:02:14.295Z,83.62
2018-04-08T03:04:41.745Z,85.23
2018-04-08T03:07:09.230Z,85.11
2018-04-08T03:09:36.779Z,85.06
2018-04-08T03:12:04.389Z,84.97
2018-04-08T03:14:31.861Z,84.64
2018-04-08T03:16:59.306Z,84.99
2018-04-08T03:19:26.774Z,85.89
2018-04-08T03:21:54.217Z,85.57
2018-04-08T03:24:21.861Z,84.64
2018-04-08T03:26:49.304Z,83.83
2018-04-08T03:29:16.838Z,84.41
2018-04-08T03:31:44.302Z,84.55
2018-04-08T03:34:11.753Z,84.88
2018-04-08T03:36:39.397Z,85.08
2018-04-08T03:39:06.837Z,84.98
2018-04-08T03:41:34.286Z,84.72
2018-04-08T03:44:01.741Z,84.96
2018-04-08T03:46:29.231Z,85.66
2018-04-08T03:48:56.801Z,85.02
2018-04-08T03:51:24.247Z,85.27
2018-04-08T03:53:51.697Z,85.01
2018-04-08T03:56:19.173Z,85.89
2018-04-08T03:58:46.645Z,85.93
2018-04-08T04:01:14.502Z,86.11
2018-04-08T04:03:41.973Z,86.01
2018-04-08T04:06:09.458Z,86.45
2018-04-08T04:08:36.974Z,86.44
2018-04-08T04:11:04.413Z,85.48
2018-04-08T04:13:32.265Z,85.62
2018-04-08T04:15:59.710Z,85.16
2018-04-08T04:18:39.078Z,84.47
2018-04-08T04:21:18.457Z,84.39
2018-04-08T04:23:57.897Z,84.07
2018-04-08T04:26:31.245Z,84.61
2018-04-08T04:28:58.810Z,85.70
2018-04-08T04:31:26.266Z,84.79
2018-04-08T04:33:53.701Z,85.76
2018-04-08T04:36:21.161Z,85.96
2018-04-08T04:38:48.617Z,86.06
2018-04-08T04:41:16.229Z,85.77
2018-04-08T04:43:43.677Z,85.74
2018-04-08T04:46:11.121Z,86.11
2018-04-08T04:48:38.581Z,85.57
2018-04-08T04:51:06.022Z,85.20
2018-04-08T04:53:33.493Z,84.97
2018-04-08T04:56:00.935Z,85.09
2018-04-08T04:58:28.388Z,85.63
2018-04-08T05:00:55.847Z,85.82
2018-04-08T05:03:23.280Z,86.36
2018-04-08T05:05:50.925Z,86.70
2018-04-08T05:08:18.371Z,87.36
2018-04-08T05:10:45.811Z,86.53
2018-04-08T05:13:13.277Z,86.03
2018-04-08T05:15:40.718Z,85.59
2018-04-08T05:18:08.185Z,86.01
2018-04-08T05:20:35.683Z,85.56
2018-04-08T05:23:03.125Z,84.17
2018-04-08T05:25:30.622Z,82.50
2018-04-08T05:27:58.088Z,81.51
2018-04-08T05:30:25.587Z,81.58
2018-04-08T05:32:53.029Z,81.50
2018-04-08T05:35:20.474Z,80.42
2018-04-08T05:37:47.941Z,80.14
2018-04-08T05:40:15.381Z,79.70
2018-04-08T05:42:43.269Z,80.52
2018-04-08T05:45:10.729Z,79.48
2018-04-08T05:47:38.174Z,78.49
2018-04-08T05:50:05.637Z,78.37
2018-04-08T05:52:33.081Z,79.05
2018-04-08T05:55:00.554Z,82.28
2018-04-08T05:57:27.997Z,81.37
2018-04-08T05:59:55.433Z,80.00
2018-04-08T06:02:22.897Z,79.87
2018-04-08T06:04:50.361Z,80.38
2018-04-08T06:07:18.061Z,81.55
2018-04-08T06:09:45.514Z,81.61
2018-04-08T06:12:12.962Z,81.54
2018-04-08T06:14:40.524Z,82.36
2018-04-08T06:17:07.990Z,82.69
2018-04-08T06:19:35.737Z,83.54
2018-04-08T06:22:03.185Z,84.34
2018-04-08T06:24:30.685Z,83.92
2018-04-08T06:26:58.179Z,83.55
2018-04-08T06:29:25.629Z,83.60
2018-04-08T06:31:53.121Z,84.91
2018-04-08T06:34:20.585Z,84.63
2018-04-08T06:36:48.054Z,83.87
2018-04-08T06:39:15.525Z,82.33
2018-04-08T06:41:42.985Z,81.27
2018-04-08T06:44:10.658Z,80.53
2018-04-08T06:46:38.129Z,80.32
2018-04-08T06:49:05.558Z,79.17
2018-04-08T06:51:33.029Z,79.18
2018-04-08T06:54:00.548Z,79.29
2018-04-08T06:56:28.013Z,78.52
2018-04-08T06:58:55.483Z,78.31
2018-04-08T07:01:22.934Z,78.14
2018-04-08T07:03:50.781Z,76.96
2018-04-08T07:06:18.274Z,76.95
2018-04-08T07:08:45.938Z,76.14
2018-04-08T07:11:13.401Z,75.37
2018-04-08T07:13:40.870Z,74.36
2018-04-08T07:16:08.334Z,74.42
2018-04-08T07:18:35.835Z,74.06
2018-04-08T07:21:03.483Z,73.57
2018-04-08T07:23:30.933Z,71.87
2018-04-08T07:25:58.401Z,71.89
2018-04-08T07:28:25.902Z,70.87
2018-04-08T07:30:53.361Z,69.29
2018-04-08T07:33:21.633Z,69.69
2018-04-08T07:35:49.170Z,69.52
2018-04-08T07:38:16.746Z,69.21
2018-04-08T07:40:44.216Z,69.24
2018-04-08T07:43:11.681Z,68.28
2018-04-08T07:45:39.306Z,66.80
2018-04-08T07:48:06.765Z,67.19
2018-04-08T07:50:34.296Z,64.93
2018-04-08T07:53:01.766Z,63.62
2018-04-08T07:55:29.229Z,63.45
2018-04-08T07:57:57.145Z,63.29
2018-04-08T08:00:24.654Z,62.54
2018-04-08T08:02:52.106Z,61.40
2018-04-08T08:05:19.615Z,61.36
2018-04-08T08:07:47.049Z,61.32
2018-04-08T08:10:14.921Z,60.38
2018-04-08T08:12:42.377Z,60.32
2018-04-08T08:15:09.841Z,60.41
2018-04-08T08:17:37.321Z,60.70
2018-04-08T08:20:04.793Z,59.56
2018-04-08T08:22:32.373Z,58.92
2018-04-08T08:24:59.892Z,59.16
2018-04-08T08:27:27.366Z,59.01
2018-04-08T08:29:54.853Z,59.01
2018-04-08T08:32:22.314Z,58.72
2018-04-08T08:34:50.333Z,59.04
2018-04-08T08:37:17.780Z,58.99
2018-04-08T08:39:45.265Z,58.71
2018-04-08T08:42:12.730Z,58.09
2018-04-08T08:44:40.207Z,58.22
2018-04-08T08:47:07.789Z,57.61
2018-04-08T08:49:35.281Z,56.85
2018-04-08T08:52:02.730Z,56.84
2018-04-08T08:54:30.198Z,56.32
2018-04-08T08:56:57.658Z,56.49
2018-04-08T08:59:25.655Z,56.60
2018-04-08T09:01:55.971Z,56.90
2018-04-08T09:04:23.499Z,56.36
2018-04-08T09:06:50.999Z,55.76
2018-04-08T09:09:22.185Z,56.35
2018-04-08T09:11:49.866Z,55.70
2018-04-08T09:14:17.313Z,55.61
2018-04-08T09:16:44.768Z,53.28
2018-04-08T09:19:13.049Z,52.62
2018-04-08T09:21:46.157Z,52.48
2018-04-08T09:24:17.053Z,51.49
2018-04-08T09:26:44.592Z,51.64
2018-04-08T09:29:12.340Z,52.54
2018-04-08T09:31:39.792Z,53.20
2018-04-08T09:34:07.253Z,51.30
2018-04-08T09:36:34.742Z,49.65
2018-04-08T09:39:02.215Z,49.20
2018-04-08T09:41:29.889Z,48.30
2018-04-08T09:43:57.334Z,49.03
2018-04-08T09:46:24.804Z,48.51
2018-04-08T09:48:52.277Z,48.50
2018-04-08T09:51:19.764Z,48.66
2018-04-08T09:53:47.662Z,47.98
2018-04-08T09:56:15.154Z,48.65
2018-04-08T09:58:42.650Z,49.09
2018-04-08T10:04:09.408Z,49.55
2018-04-08T10:06:36.885Z,50.07
2018-04-08T10:09:04.390Z,49.50
2018-04-08T10:11:31.909Z,48.21
2018-04-08T10:13:59.425Z,48.31
2018-04-08T10:16:26.983Z,48.44
2018-04-08T10:18:54.521Z,47.54
2018-04-08T10:21:21.974Z,47.60
2018-04-08T10:23:49.819Z,47.86
2018-04-08T10:26:19.679Z,47.25
2018-04-08T10:28:48.667Z,47.02
2018-04-08T10:31:16.170Z,46.62
2018-04-08T10:33:54.417Z,46.27
2018-04-08T10:36:26.201Z,45.73
2018-04-08T10:38:53.638Z,46.11
2018-04-08T10:41:21.126Z,45.01
2018-04-08T10:43:48.595Z,44.45
2018-04-08T10:46:16.126Z,44.10
2018-04-08T10:48:43.613Z,43.73
2018-04-08T10:51:11.125Z,42.79
2018-04-08T10:53:38.601Z,43.26
2018-04-08T10:56:06.106Z,43.04
2018-04-08T10:58:33.553Z,43.06
2018-04-08T11:01:01.001Z,42.93
2018-04-08T11:03:28.480Z,43.77
2018-04-08T11:05:55.950Z,42.65
2018-04-08T11:08:23.397Z,42.55
2018-04-08T11:10:50.881Z,42.38
2018-04-08T11:13:18.354Z,41.62
2018-04-08T11:15:45.804Z,41.31
2018-04-08T11:18:13.305Z,41.41
2018-04-08T11:20:40.772Z,41.13
2018-04-08T11:23:08.226Z,41.03
2018-04-08T11:25:35.709Z,41.15
2018-04-08T11:28:03.169Z,40.72
2018-04-08T11:30:30.642Z,41.21
2018-04-08T11:32:58.150Z,39.86
2018-04-08T11:35:25.645Z,41.13
2018-04-08T11:37:53.114Z,40.69
2018-04-08T11:40:20.706Z,40.77
2018-04-08T11:42:48.163Z,40.86
2018-04-08T11:45:15.610Z,40.10
2018-04-08T11:47:43.233Z,38.41
2018-04-08T11:50:10.682Z,38.83
2018-04-08T11:52:38.157Z,38.37
2018-04-08T11:55:05.668Z,40.04
2018-04-08T11:57:33.119Z,40.96
2018-04-08T12:00:00.594Z,41.67
2018-04-08T12:02:28.101Z,40.34
2018-04-08T12:04:55.569Z,39.55
2018-04-08T12:07:23.281Z,39.15
2018-04-08T12:09:50.729Z,38.75
2018-04-08T12:12:18.200Z,38.42
2018-04-08T12:14:45.669Z,38.30
2018-04-08T12:17:13.133Z,39.06
2018-04-08T12:19:40.663Z,38.57
2018-04-08T12:22:08.133Z,38.82
2018-04-08T12:24:35.605Z,38.21
2018-04-08T12:27:05.653Z,37.90
2018-04-08T12:29:33.106Z,38.71
2018-04-08T12:32:00.594Z,36.51
2018-04-08T12:34:28.058Z,36.34
2018-04-08T12:36:55.642Z,37.06
2018-04-08T12:39:23.090Z,37.13
2018-04-08T12:41:50.540Z,36.99
2018-04-08T12:44:18.014Z,37.51
2018-04-08T12:46:45.464Z,36.93
2018-04-08T12:49:12.968Z,37.09
2018-04-08T12:51:40.418Z,36.52
2018-04-08T12:54:07.885Z,36.60
2018-04-08T12:56:35.386Z,36.68
2018-04-08T12:59:02.853Z,36.27
2018-04-08T13:01:30.412Z,35.60
2018-04-08T13:03:57.861Z,33.12
2018-04-08T13:06:25.305Z,33.92
2018-04-08T13:08:52.773Z,34.84
2018-04-08T13:11:20.238Z,35.13
2018-04-08T13:13:47.738Z,35.44
2018-04-08T13:16:15.217Z,35.10
2018-04-08T13:18:42.670Z,34.83
2018-04-08T13:21:10.166Z,34.74
2018-04-08T13:23:37.613Z,33.99
2018-04-08T13:26:05.282Z,33.39
2018-04-08T13:28:32.733Z,33.35
2018-04-08T13:31:00.205Z,34.03
2018-04-08T13:33:27.713Z,34.54
2018-04-08T13:35:55.161Z,34.92
2018-04-08T13:38:22.838Z,32.26
2018-04-08T13:40:50.290Z,32.23
2018-04-08T13:43:17.740Z,34.29
2018-04-08T13:45:45.215Z,33.12
2018-04-08T13:48:12.690Z,33.92
2018-04-08T13:50:40.485Z,32.05
2018-04-08T13:53:07.947Z,29.17
2018-04-08T13:55:35.401Z,29.63
2018-04-08T13:58:02.885Z,29.63
2018-04-08T14:00:30.342Z,28.92
2018-04-08T14:02:57.885Z,29.88
2018-04-08T14:05:25.338Z,28.20
2018-04-08T14:07:52.781Z,29.49
2018-04-08T14:10:20.272Z,29.66
2018-04-08T14:12:47.764Z,29.77
2018-04-08T14:15:15.272Z,30.98
2018-04-08T14:17:42.726Z,31.78
2018-04-08T14:20:10.182Z,29.74
2018-04-08T14:22:37.650Z,29.52
2018-04-08T14:25:05.097Z,28.78
2018-04-08T14:27:32.937Z,29.68
2018-04-08T14:30:00.399Z,29.42
2018-04-08T14:32:27.871Z,29.22
2018-04-08T14:34:55.340Z,30.13
2018-04-08T14:37:22.794Z,31.07
2018-04-08T14:39:50.397Z,29.90
2018-04-08T14:42:17.841Z,31.83
2018-04-08T14:44:45.289Z,32.04
2018-04-08T14:47:12.762Z,31.89
2018-04-08T14:49:40.230Z,31.69
2018-04-08T14:52:08.046Z,32.03
2018-04-08T14:54:35.486Z,30.57
2018-04-08T14:57:02.925Z,31.15
2018-04-08T14:59:30.409Z,31.09
2018-04-08T15:01:57.853Z,29.36
2018-04-08T15:04:25.712Z,30.41
2018-04-08T15:06:53.195Z,31.34
2018-04-08T15:09:20.850Z,30.69
2018-04-08T15:11:48.335Z,29.81
2018-04-08T15:14:15.829Z,29.83
2018-04-08T15:16:43.300Z,30.27
2018-04-08T15:19:10.747Z,31.61
2018-04-08T15:21:38.190Z,32.36
2018-04-08T15:24:05.667Z,32.72
2018-04-08T15:26:33.115Z,31.42
2018-04-08T15:29:00.702Z,31.24
2018-04-08T15:31:28.149Z,32.05
2018-04-08T15:33:55.628Z,33.84
2018-04-08T15:36:23.105Z,33.40
2018-04-08T15:38:50.549Z,33.49
2018-04-08T15:41:18.161Z,33.92
2018-04-08T15:43:45.631Z,33.77
2018-04-08T15:46:13.089Z,33.63
2018-04-08T15:48:40.849Z,33.93
2018-04-08T15:51:08.266Z,34.87
2018-04-08T15:53:35.939Z,35.88
2018-04-08T15:56:03.381Z,38.14
2018-04-08T15:58:30.862Z,40.04
2018-04-08T16:00:58.749Z,39.49
2018-04-08T16:03:26.202Z,39.30
2018-04-08T16:05:53.666Z,40.47
2018-04-08T16:08:21.179Z,41.70
2018-04-08T16:10:48.643Z,42.00
2018-04-08T16:13:16.217Z,42.61
2018-04-08T16:15:43.654Z,41.42
2018-04-08T16:18:11.638Z,41.79
2018-04-08T16:20:39.365Z,40.95
2018-04-08T16:23:06.843Z,42.03
2018-04-08T16:25:34.371Z,41.21
2018-04-08T16:28:01.789Z,40.20
2018-04-08T16:30:29.238Z,40.41
2018-04-08T16:32:56.706Z,41.04
2018-04-08T16:35:24.162Z,41.63
2018-04-08T16:37:52.010Z,41.88
2018-04-08T16:40:19.489Z,43.23
2018-04-08T16:42:46.951Z,44.36
2018-04-08T16:45:14.418Z,44.66
2018-04-08T16:47:41.897Z,45.18
2018-04-08T16:50:09.638Z,45.16
2018-04-08T16:52:37.119Z,45.00
2018-04-08T16:55:04.585Z,45.61
2018-04-08T16:57:32.046Z,46.05
2018-04-08T16:59:59.493Z,46.10
2018-04-08T17:02:27.432Z,46.45
2018-04-08T17:04:54.897Z,46.58
2018-04-08T17:07:22.452Z,47.63
2018-04-08T17:09:49.919Z,47.60
2018-04-08T17:12:17.467Z,47.84
2018-04-08T17:14:45.075Z,48.07
2018-04-08T17:17:12.517Z,48.22
2018-04-08T17:19:39.969Z,47.79
2018-04-08T17:22:07.461Z,48.33
2018-04-08T17:24:34.908Z,47.88
2018-04-08T17:27:02.779Z,47.60
2018-04-08T17:29:30.218Z,47.46
2018-04-08T17:31:57.658Z,47.53
2018-04-08T17:34:25.152Z,47.12
2018-04-08T17:36:52.615Z,48.09
2018-04-08T17:39:20.501Z,48.97
2018-04-08T17:41:47.942Z,49.24
2018-04-08T17:44:15.390Z,49.63
2018-04-08T17:46:42.853Z,51.11
2018-04-08T17:49:12.610Z,51.50
2018-04-08T17:51:40.499Z,49.45
2018-04-08T17:54:07.942Z,48.74
2018-04-08T17:56:36.782Z,49.74
2018-04-08T17:59:04.951Z,50.79
2018-04-08T18:01:32.413Z,52.12
2018-04-08T18:03:59.906Z,52.43
2018-04-08T18:06:27.377Z,53.51
2018-04-08T18:08:54.881Z,54.03
2018-04-08T18:11:22.374Z,55.13
2018-04-08T18:13:49.837Z,55.25
2018-04-08T18:16:17.460Z,55.78
2018-04-08T18:18:45.121Z,56.23
2018-04-08T18:21:12.579Z,56.14
2018-04-08T18:23:40.070Z,56.02
2018-04-08T18:26:07.770Z,55.72
2018-04-08T18:28:35.431Z,55.09
2018-04-08T18:31:02.890Z,54.99
2018-04-08T18:33:30.414Z,55.37
2018-04-08T18:35:57.845Z,56.29
2018-04-08T18:38:25.316Z,57.67
2018-04-08T18:40:52.973Z,57.74
2018-04-08T18:43:20.534Z,56.64
2018-04-08T18:45:48.047Z,56.94
2018-04-08T18:48:15.541Z,56.79
2018-04-08T18:50:43.020Z,56.86
2018-04-08T18:53:10.738Z,56.68
2018-04-08T18:55:38.215Z,56.85
2018-04-08T18:58:05.703Z,57.17
2018-04-08T19:00:33.728Z,57.64
2018-04-08T19:03:01.439Z,58.91
2018-04-08T19:05:29.220Z,60.18
2018-04-08T19:07:56.711Z,60.12
2018-04-08T19:10:24.182Z,60.26
2018-04-08T19:12:51.662Z,61.65
2018-04-08T19:15:21.091Z,62.16
2018-04-08T19:17:54.120Z,62.02
2018-04-08T19:20:21.605Z,62.29
2018-04-08T19:22:49.067Z,60.83
2018-04-08T19:25:16.625Z,62.17
2018-04-08T19:27:44.183Z,60.63
2018-04-08T19:30:17.396Z,60.89
2018-04-08T19:32:44.870Z,60.76
2018-04-08T19:35:12.339Z,61.21
2018-04-08T19:37:39.871Z,61.69
2018-04-08T19:40:07.326Z,61.82
2018-04-08T19:42:35.797Z,61.84
2018-04-08T19:45:03.266Z,61.81
2018-04-08T19:47:30.725Z,61.89
2018-04-08T19:49:58.206Z,61.48
2018-04-08T19:52:25.741Z,61.98
2018-04-08T19:54:53.358Z,61.86
2018-04-08T19:57:20.841Z,61.33
2018-04-08T19:59:48.317Z,61.48
2018-04-08T20:02:15.858Z,61.67
2018-04-08T20:04:43.334Z,62.16
2018-04-08T20:07:11.004Z,62.11
2018-04-08T20:09:38.459Z,62.71
2018-04-08T20:12:05.975Z,62.79
2018-04-08T20:14:33.453Z,62.58
2018-04-08T20:17:00.916Z,63.41
2018-04-08T20:19:28.589Z,62.99
2018-04-08T20:21:56.034Z,62.02
2018-04-08T20:24:23.513Z,62.15
2018-04-08T20:26:51.028Z,62.58
2018-04-08T20:29:18.459Z,62.12
2018-04-08T20:31:46.221Z,64.12
2018-04-08T20:34:13.666Z,63.81
2018-04-08T20:36:41.109Z,63.52
2018-04-08T20:39:08.634Z,62.79
2018-04-08T20:41:36.091Z,62.10
2018-04-08T20:44:03.710Z,61.39
2018-04-08T20:46:31.149Z,62.77
2018-04-08T20:48:58.658Z,65.26
2018-04-08T20:51:26.152Z,64.50
2018-04-08T20:53:53.625Z,63.86
2018-04-08T20:56:21.425Z,64.64
2018-04-08T20:58:48.893Z,65.60
2018-04-08T21:01:16.333Z,67.00
2018-04-08T21:03:43.794Z,67.10
2018-04-08T21:06:11.260Z,66.97
2018-04-08T21:08:38.998Z,68.45
2018-04-08T21:11:06.505Z,68.70
2018-04-08T21:13:33.946Z,69.63
2018-04-08T21:16:01.423Z,69.45
2018-04-08T21:18:28.873Z,68.84
2018-04-08T21:20:56.534Z,69.00
2018-04-08T21:23:23.982Z,69.68
2018-04-08T21:25:51.428Z,70.19
2018-04-08T21:28:18.939Z,70.20
2018-04-08T21:30:46.401Z,70.88
2018-04-08T21:33:13.870Z,70.42
2018-04-08T21:35:41.321Z,70.29
2018-04-08T21:38:08.773Z,70.41
2018-04-08T21:40:36.247Z,70.51
2018-04-08T21:43:03.708Z,71.59
2018-04-08T21:45:31.186Z,71.84
2018-04-08T21:47:58.645Z,72.60
2018-04-08T21:50:26.090Z,73.06
2018-04-08T21:52:53.559Z,72.80
2018-04-08T21:55:21.013Z,73.32
2018-04-08T21:57:48.788Z,73.66
2018-04-08T22:00:16.230Z,73.92
2018-04-08T22:02:43.678Z,74.69
2018-04-08T22:05:11.157Z,74.86
2018-04-08T22:07:38.602Z,75.08
2018-04-08T22:10:06.125Z,74.74
2018-04-08T22:12:33.569Z,75.18
2018-04-08T22:15:01.041Z,76.12
2018-04-08T22:17:28.522Z,76.46
2018-04-08T22:19:55.981Z,76.33
2018-04-08T22:22:23.701Z,76.62
2018-04-08T22:24:51.145Z,75.42
2018-04-08T22:27:18.616Z,76.60
2018-04-08T22:29:46.092Z,76.57
2018-04-08T22:32:13.606Z,76.47
2018-04-08T22:34:41.309Z,76.69
2018-04-08T22:37:08.757Z,77.07
2018-04-08T22:39:36.202Z,76.99
2018-04-08T22:42:03.670Z,76.92
2018-04-08T22:44:31.114Z,76.84
2018-04-08T22:46:58.797Z,77.13
2018-04-08T22:49:26.253Z,77.81
2018-04-08T22:51:53.763Z,77.37
2018-04-08T22:54:21.227Z,77.82
2018-04-08T22:56:48.690Z,77.99
2018-04-08T22:59:16.169Z,78.02
2018-04-08T23:01:43.613Z,78.55
2018-04-08T23:04:11.054Z,78.19
2018-04-08T23:06:38.526Z,78.51
2018-04-08T23:09:05.982Z,79.22
2018-04-08T23:11:33.548Z,78.85
2018-04-08T23:14:01.006Z,77.79
2018-04-08T23:16:28.470Z,78.85
2018-04-08T23:18:55.941Z,77.65
2018-04-08T23:21:23.385Z,78.43
2018-04-08T23:23:51.158Z,78.40
2018-04-08T23:26:18.997Z,78.49
2018-04-08T23:28:46.433Z,77.54
2018-04-08T23:31:13.913Z,77.62
2018-04-08T23:33:41.365Z,77.27
2018-04-08T23:36:08.840Z,77.43
2018-04-08T23:38:36.283Z,78.00
2018-04-08T23:41:03.729Z,78.21
2018-04-08T23:43:31.189Z,78.38
2018-04-08T23:45:58.627Z,78.14
2018-04-08T23:48:26.241Z,78.01
2018-04-08T23:50:53.689Z,79.10
2018-04-08T23:53:21.130Z,79.36
2018-04-08T23:55:48.619Z,78.98
2018-04-08T23:58:16.088Z,78.87
